Time;durP1;ratioP1;P1;durP2;ratioP2;P2;SDS_P1;SDS_P2;PMS_P1;PMS_P2;Temp;Humidity;BMP_temperature;BMP_pressure;BME280_temperature;BME280_humidity;BME280_pressure;Samples;Min_cycle;Max_cycle;Signal;HPM_P1;HPM_P2
2023/06/28 00:01:21;;;;;;;;;;;;;;;-144.99;100.00;52248.34;5037400;28;19943;-73
2023/06/28 00:03:49;;;;;;;;;;;;;;;-144.99;100.00;52264.66;5035455;28;19943;-72
2023/06/28 00:06:15;;;;;;;;;;;;;;;-144.99;100.00;52285.03;5030851;28;20341;-73
2023/06/28 00:08:42;;;;;;;;;;;;;;;-144.99;100.00;52285.03;5037045;28;19960;-73
2023/06/28 00:11:08;;;;;;;;;;;;;;;-144.99;100.00;52276.88;5031819;28;20436;-73
2023/06/28 00:13:36;;;;;;;;;;;;;;;-144.99;100.00;52287.06;5039604;28;19941;-72
2023/06/28 00:16:03;;;;;;;;;;;;;;;-144.99;100.00;52297.25;5028458;28;20000;-73
2023/06/28 00:18:32;;;;;;;;;;;;;;;-144.99;100.00;52240.19;5036865;28;19966;-72
2023/06/28 00:21:00;;;;;;;;;;;;;;;-144.99;100.00;52268.72;5032427;28;19950;-73
2023/06/28 00:23:27;;;;;;;;;;;;;;;-144.99;100.00;52280.97;5038679;28;19940;-73
2023/06/28 00:25:53;;;;;;;;;;;;;;;-144.99;100.00;52285.03;5039108;28;19961;-72
2023/06/28 00:28:20;;;;;;;;;;;;;;;-144.99;100.00;52268.72;5055750;28;19953;-72
2023/06/28 00:30:48;;;;;;;;;;;;;;;-144.99;100.00;52297.25;5053934;28;19961;-72
2023/06/28 00:33:19;;;;;;;;;;;;;;;-144.99;100.00;52278.91;5041923;28;19942;-72
2023/06/28 00:35:46;;;;;;;;;;;;;;;-144.99;100.00;52240.19;5042636;28;19985;-73
2023/06/28 00:38:12;;;;;;;;;;;;;;;-144.99;100.00;52232.03;5041724;28;19953;-73
2023/06/28 00:40:39;;;;;;;;;;;;;;;-144.99;100.00;52280.97;5047391;28;19944;-73
2023/06/28 00:43:05;;;;;;;;;;;;;;;-144.99;100.00;52244.28;5038307;28;19944;-72
2023/06/28 00:45:32;;;;;;;;;;;;;;;-144.99;100.00;52287.06;5043091;28;19947;-73
2023/06/28 00:48:00;;;;;;;;;;;;;;;-144.99;100.00;52280.97;5047761;28;20378;-73
2023/06/28 00:50:27;;;;;;;;;;;;;;;-144.99;100.00;52260.56;5045190;28;19956;-73
2023/06/28 00:52:54;;;;;;;;;;;;;;;-144.99;100.00;52289.13;5040092;28;19939;-73
2023/06/28 00:55:21;;;;;;;;;;;;;;;-144.99;100.00;52252.44;5047277;28;19937;-73
2023/06/28 00:57:47;;;;;;;;;;;;;;;-144.99;100.00;52258.53;5040988;28;19992;-73
2023/06/28 01:00:14;;;;;;;;;;;;;;;-144.99;100.00;52262.63;5049146;28;19939;-73
2023/06/28 01:02:44;;;;;;;;;;;;;;;-144.99;100.00;52264.66;5044027;28;19967;-73
2023/06/28 01:05:13;;;;;;;;;;;;;;;-144.99;100.00;52289.13;5036789;28;19936;-72
2023/06/28 01:07:40;;;;;;;;;;;;;;;-144.99;100.00;52262.63;5058185;28;19945;-72
2023/06/28 01:10:08;;;;;;;;;;;;;;;-144.99;100.00;52264.66;5047212;28;19941;-72
2023/06/28 01:12:35;;;;;;;;;;;;;;;-144.99;100.00;52278.91;5046433;28;19948;-73
2023/06/28 01:15:03;;;;;;;;;;;;;;;-144.99;100.00;52305.41;5043301;28;19943;-73
2023/06/28 01:17:30;;;;;;;;;;;;;;;-144.99;100.00;52289.13;5041341;28;19978;-74
2023/06/28 01:19:56;;;;;;;;;;;;;;;-144.99;100.00;52264.66;5046493;28;19939;-73
2023/06/28 01:22:26;;;;;;;;;;;;;;;-144.99;100.00;52264.66;5038742;28;19936;-72
2023/06/28 01:24:56;;;;;;;;;;;;;;;-144.99;100.00;52309.50;5047288;28;20001;-73
2023/06/28 01:27:23;;;;;;;;;;;;;;;-144.99;100.00;52276.88;5044835;28;20012;-73
2023/06/28 01:29:53;;;;;;;;;;;;;;;-144.99;100.00;52276.88;5042905;28;19960;-72
2023/06/28 01:32:20;;;;;;;;;;;;;;;-144.99;100.00;52276.88;5040846;28;19925;-72
2023/06/28 01:34:47;;;;;;;;;;;;;;;-144.99;100.00;52291.16;5036059;28;19945;-72
2023/06/28 01:37:14;;;;;;;;;;;;;;;-144.99;100.00;52264.66;5033683;28;20547;-73
2023/06/28 01:39:40;;;;;;;;;;;;;;;-144.99;100.00;52240.19;5040174;28;19940;-73
2023/06/28 01:42:09;;;;;;;;;;;;;;;-144.99;100.00;52289.13;5049807;28;19993;-73
2023/06/28 01:44:36;;;;;;;;;;;;;;;-144.99;100.00;52234.09;5058213;28;19961;-72
2023/06/28 01:47:03;;;;;;;;;;;;;;;-144.99;100.00;52223.88;5051581;28;19932;-72
2023/06/28 01:49:30;;;;;;;;;;;;;;;-144.99;100.00;52234.09;5034745;28;20389;-72
2023/06/28 01:51:57;;;;;;;;;;;;;;;-144.99;100.00;52289.13;5031435;28;19955;-72
2023/06/28 01:54:24;;;;;;;;;;;;;;;-144.99;100.00;52293.19;5038471;28;19941;-73
2023/06/28 01:56:51;;;;;;;;;;;;;;;-144.99;100.00;52280.97;5038155;28;19963;-73
2023/06/28 01:59:19;;;;;;;;;;;;;;;-144.99;100.00;52285.03;5035498;28;19938;-73
2023/06/28 02:01:45;;;;;;;;;;;;;;;-144.99;100.00;52297.25;5041086;28;20408;-72
2023/06/28 02:04:12;;;;;;;;;;;;;;;-144.99;100.00;52260.56;5037055;28;19943;-73
2023/06/28 02:06:39;;;;;;;;;;;;;;;-144.99;100.00;52285.03;5035658;28;19953;-72
2023/06/28 02:09:06;;;;;;;;;;;;;;;-144.99;100.00;52283.00;5038150;28;19987;-72
2023/06/28 02:11:32;;;;;;;;;;;;;;;-144.99;100.00;52285.03;5039941;28;19975;-73
2023/06/28 02:13:59;;;;;;;;;;;;;;;-144.99;100.00;52264.66;5039827;28;19936;-72
2023/06/28 02:16:27;;;;;;;;;;;;;;;-144.99;100.00;52230.00;5043185;28;19944;-73
2023/06/28 02:18:57;;;;;;;;;;;;;;;-144.99;100.00;52293.19;5041579;28;20040;-72
2023/06/28 02:21:23;;;;;;;;;;;;;;;-144.99;100.00;52256.50;5058175;28;19977;-73
2023/06/28 02:23:50;;;;;;;;;;;;;;;-144.99;100.00;52280.97;5055728;28;19932;-72
2023/06/28 02:26:16;;;;;;;;;;;;;;;-144.99;100.00;52240.19;5041524;28;19951;-73
2023/06/28 02:28:43;;;;;;;;;;;;;;;-144.99;100.00;52293.19;5032501;28;19957;-73
2023/06/28 02:31:09;;;;;;;;;;;;;;;-144.99;100.00;52313.56;5034221;28;19960;-73
2023/06/28 02:33:37;;;;;;;;;;;;;;;-144.99;100.00;52254.47;5033555;28;19940;-72
2023/06/28 02:36:04;;;;;;;;;;;;;;;-144.99;100.00;52276.88;5037493;28;20427;-72
2023/06/28 02:38:31;;;;;;;;;;;;;;;-144.99;100.00;52276.88;5035396;28;19962;-73
2023/06/28 02:40:57;;;;;;;;;;;;;;;-144.99;100.00;52285.03;5032114;28;20023;-73
2023/06/28 02:43:24;;;;;;;;;;;;;;;-144.99;100.00;52303.38;5033631;28;19978;-73
2023/06/28 02:45:50;;;;;;;;;;;;;;;-144.99;100.00;52252.44;5034770;28;19981;-72
2023/06/28 02:48:17;;;;;;;;;;;;;;;-144.99;100.00;52260.56;5035258;28;19967;-73
2023/06/28 02:50:45;;;;;;;;;;;;;;;-144.99;100.00;52303.38;5032678;28;19967;-73
2023/06/28 02:53:11;;;;;;;;;;;;;;;-144.99;100.00;52268.72;5028771;28;20517;-72
2023/06/28 02:55:38;;;;;;;;;;;;;;;-144.99;100.00;52276.88;5036012;28;20360;-73
2023/06/28 02:58:05;;;;;;;;;;;;;;;-144.99;100.00;52268.72;5032072;28;19957;-73
2023/06/28 03:00:31;;;;;;;;;;;;;;;-144.99;100.00;52293.19;5065687;28;19932;-72
2023/06/28 03:02:58;;;;;;;;;;;;;;;-144.99;100.00;52252.44;5029536;28;19942;-72
2023/06/28 03:05:24;;;;;;;;;;;;;;;-144.99;100.00;52297.25;5034753;28;20471;-72
2023/06/28 03:07:52;;;;;;;;;;;;;;;-144.99;100.00;52285.03;5034842;28;19966;-72
2023/06/28 03:10:19;;;;;;;;;;;;;;;-144.99;100.00;52285.03;5036896;28;20467;-72
2023/06/28 03:12:45;;;;;;;;;;;;;;;-144.99;100.00;52252.44;5023738;28;19956;-72
2023/06/28 03:15:12;;;;;;;;;;;;;;;-144.99;100.00;52262.63;5028147;28;19949;-72
2023/06/28 03:17:39;;;;;;;;;;;;;;;-144.99;100.00;52272.81;5036872;28;19967;-73
2023/06/28 03:20:06;;;;;;;;;;;;;;;-144.99;100.00;52223.88;5034320;28;19990;-73
2023/06/28 03:22:32;;;;;;;;;;;;;;;-144.99;100.00;52293.19;5039191;28;19945;-72
2023/06/28 03:25:00;;;;;;;;;;;;;;;-144.99;100.00;52285.03;5033261;28;19937;-73
2023/06/28 03:27:27;;;;;;;;;;;;;;;-144.99;100.00;52280.97;5036758;28;20303;-73
2023/06/28 03:29:53;;;;;;;;;;;;;;;-144.99;100.00;52211.66;5029166;28;20442;-73
2023/06/28 03:32:20;;;;;;;;;;;;;;;-144.99;100.00;52280.97;5038970;28;20368;-73
2023/06/28 03:34:47;;;;;;;;;;;;;;;-144.99;100.00;52246.31;5023903;28;20406;-73
2023/06/28 03:37:16;;;;;;;;;;;;;;;-144.99;100.00;52276.88;5047647;28;19950;-72
2023/06/28 03:39:42;;;;;;;;;;;;;;;-144.99;100.00;52276.88;5056745;28;19928;-72
2023/06/28 03:42:10;;;;;;;;;;;;;;;-144.99;100.00;52236.13;5036693;28;19946;-73
2023/06/28 03:44:37;;;;;;;;;;;;;;;-144.99;100.00;52256.50;5032783;28;19948;-72
2023/06/28 03:47:03;;;;;;;;;;;;;;;-144.99;100.00;52223.88;5038828;28;19962;-72
2023/06/28 03:49:30;;;;;;;;;;;;;;;-144.99;100.00;52248.34;5032009;28;19929;-73
2023/06/28 03:51:56;;;;;;;;;;;;;;;-144.99;100.00;52213.69;5026832;28;19952;-73
2023/06/28 03:54:23;;;;;;;;;;;;;;;-144.99;100.00;52256.50;5035967;28;19933;-73
2023/06/28 03:56:50;;;;;;;;;;;;;;;-144.99;100.00;52264.66;5040148;28;20438;-72
2023/06/28 03:59:18;;;;;;;;;;;;;;;-144.99;100.00;52223.88;5036755;28;20339;-72
2023/06/28 04:01:44;;;;;;;;;;;;;;;-144.99;100.00;52244.28;5041692;28;19975;-73
2023/06/28 04:04:11;;;;;;;;;;;;;;;-144.99;100.00;52236.13;5038224;28;19987;-73
2023/06/28 04:06:37;;;;;;;;;;;;;;;-144.99;100.00;52264.66;5036654;28;19944;-73
2023/06/28 04:09:05;;;;;;;;;;;;;;;-144.99;100.00;52307.47;5038949;28;19959;-72
2023/06/28 04:11:31;;;;;;;;;;;;;;;-144.99;100.00;52264.66;5038710;28;20017;-72
2023/06/28 04:13:58;;;;;;;;;;;;;;;-144.99;100.00;52232.03;5045737;28;19932;-72
2023/06/28 04:16:26;;;;;;;;;;;;;;;-144.99;100.00;52219.81;5063881;28;19930;-72
2023/06/28 04:18:53;;;;;;;;;;;;;;;-144.99;100.00;52238.16;5036914;28;19951;-72
2023/06/28 04:21:19;;;;;;;;;;;;;;;-144.99;100.00;52244.28;5042800;28;20471;-72
2023/06/28 04:23:46;;;;;;;;;;;;;;;-144.99;100.00;52244.28;5035453;28;19946;-73
2023/06/28 04:26:12;;;;;;;;;;;;;;;-144.99;100.00;52248.34;5040204;28;19965;-73
2023/06/28 04:28:39;;;;;;;;;;;;;;;-144.99;100.00;52252.44;5036214;28;20039;-73
2023/06/28 04:31:06;;;;;;;;;;;;;;;-144.99;100.00;52254.47;5036764;28;20428;-72
2023/06/28 04:33:35;;;;;;;;;;;;;;;-144.99;100.00;52256.50;5037437;28;19979;-72
2023/06/28 04:36:01;;;;;;;;;;;;;;;-144.99;100.00;52246.31;5037187;28;19969;-72
2023/06/28 04:38:28;;;;;;;;;;;;;;;-144.99;100.00;52244.28;5036431;28;19972;-72
2023/06/28 04:40:55;;;;;;;;;;;;;;;-144.99;100.00;52256.50;5041913;28;19944;-73
2023/06/28 04:43:21;;;;;;;;;;;;;;;-144.99;100.00;52252.44;5037135;28;19929;-73
2023/06/28 04:45:48;;;;;;;;;;;;;;;-144.99;100.00;52258.53;5036612;28;19961;-72
2023/06/28 04:48:15;;;;;;;;;;;;;;;-144.99;100.00;52293.19;5037132;28;20038;-73
2023/06/28 04:50:43;;;;;;;;;;;;;;;-144.99;100.00;52256.50;5039058;28;19945;-72
2023/06/28 04:53:10;;;;;;;;;;;;;;;-144.99;100.00;52242.22;5054444;28;19950;-73
2023/06/28 04:55:36;;;;;;;;;;;;;;;-144.99;100.00;52285.03;5054145;28;20110;-72
2023/06/28 04:58:03;;;;;;;;;;;;;;;-144.99;100.00;52232.03;5029925;28;19960;-72
2023/06/28 05:00:30;;;;;;;;;;;;;;;-144.99;100.00;52238.16;5058531;22;20296;-68
2023/06/28 05:02:57;;;;;;;;;;;;;;;-144.99;100.00;52262.63;5064886;28;19963;-67
2023/06/28 05:05:24;;;;;;;;;;;;;;;-144.99;100.00;52207.59;5067209;28;19946;-68
2023/06/28 05:07:53;;;;;;;;;;;;;;;-144.99;100.00;52225.94;5068232;28;19942;-68
2023/06/28 05:10:20;;;;;;;;;;;;;;;-144.99;100.00;52240.19;5059247;28;20017;-68
2023/06/28 05:12:48;;;;;;;;;;;;;;;-144.99;100.00;52232.03;5059003;28;19981;-69
2023/06/28 05:15:15;;;;;;;;;;;;;;;-144.99;100.00;52225.94;5059618;28;20037;-67
2023/06/28 05:17:41;;;;;;;;;;;;;;;-144.99;100.00;52238.16;5047918;28;19948;-68
2023/06/28 05:20:09;;;;;;;;;;;;;;;-144.99;100.00;52240.19;5047982;28;19979;-69
2023/06/28 05:22:35;;;;;;;;;;;;;;;-144.99;100.00;52221.84;5051088;28;19973;-67
2023/06/28 05:25:04;;;;;;;;;;;;;;;-144.99;100.00;52256.50;5053104;28;19941;-68
2023/06/28 05:27:30;;;;;;;;;;;;;;;-144.99;100.00;52227.97;5056392;28;19943;-68
2023/06/28 05:29:57;;;;;;;;;;;;;;;-144.99;99.32;52223.88;5052030;28;19958;-68
2023/06/28 05:32:24;;;;;;;;;;;;;;;-144.99;98.70;52211.66;5063607;28;19960;-67
2023/06/28 05:34:50;;;;;;;;;;;;;;;-144.99;99.36;52211.66;5057030;28;19938;-68
2023/06/28 05:37:17;;;;;;;;;;;;;;;-144.99;98.50;52209.63;5060524;28;20388;-68
2023/06/28 05:39:43;;;;;;;;;;;;;;;-144.99;98.49;52236.13;5054603;28;20045;-67
2023/06/28 05:42:11;;;;;;;;;;;;;;;-144.99;97.50;52207.59;5054563;28;19940;-67
2023/06/28 05:44:38;;;;;;;;;;;;;;;-144.99;96.74;52219.81;5049930;28;19966;-68
2023/06/28 05:47:05;;;;;;;;;;;;;;;-144.99;97.38;52227.97;5050567;28;19949;-67
2023/06/28 05:49:37;;;;;;;;;;;;;;;-144.99;96.50;52240.19;5057740;28;19966;-66
2023/06/28 05:52:04;;;;;;;;;;;;;;;-144.99;95.89;52215.75;5049296;28;19929;-68
2023/06/28 05:54:31;;;;;;;;;;;;;;;-144.99;94.92;52203.50;5052777;28;19949;-68
2023/06/28 05:56:57;;;;;;;;;;;;;;;-144.99;94.43;52240.19;5057205;28;19969;-68
2023/06/28 05:59:25;;;;;;;;;;;;;;;-144.99;94.03;52211.66;5056876;28;20296;-68
2023/06/28 06:01:53;;;;;;;;;;;;;;;-144.99;93.50;52187.19;5052303;28;20459;-68
2023/06/28 06:04:19;;;;;;;;;;;;;;;-144.99;93.12;52187.19;5057105;28;19939;-67
2023/06/28 06:06:46;;;;;;;;;;;;;;;-144.99;92.98;52219.81;5050882;28;19967;-68
2023/06/28 06:09:13;;;;;;;;;;;;;;;-144.99;92.60;52225.94;5060511;28;20437;-68
2023/06/28 06:11:40;;;;;;;;;;;;;;;-144.99;91.73;52199.44;5050331;28;19949;-68
2023/06/28 06:14:06;;;;;;;;;;;;;;;-144.99;91.33;52223.88;5053425;28;19941;-69
2023/06/28 06:16:34;;;;;;;;;;;;;;;-144.99;90.96;52195.34;5049797;28;19942;-68
2023/06/28 06:19:01;;;;;;;;;;;;;;;-144.99;90.40;52185.16;5049921;28;20404;-70
2023/06/28 06:21:28;;;;;;;;;;;;;;;-144.99;90.90;52211.66;5057622;28;19960;-69
2023/06/28 06:23:54;;;;;;;;;;;;;;;-144.99;90.15;52193.31;5050375;28;19937;-70
2023/06/28 06:26:21;;;;;;;;;;;;;;;-144.99;90.41;52211.66;5060501;28;20317;-68
2023/06/28 06:28:47;;;;;;;;;;;;;;;-144.99;90.48;52205.53;5050933;28;19941;-68
2023/06/28 06:31:15;;;;;;;;;;;;;;;-144.99;90.01;52150.53;5051792;28;20486;-69
2023/06/28 06:33:43;;;;;;;;;;;;;;;-144.99;90.28;52193.31;5055931;28;19954;-68
2023/06/28 06:36:09;;;;;;;;;;;;;;;-144.99;90.26;52191.28;5055045;28;19935;-69
2023/06/28 06:38:37;;;;;;;;;;;;;;;-144.99;89.79;52162.75;5057069;28;19929;-68
2023/06/28 06:41:04;;;;;;;;;;;;;;;-144.99;90.07;52195.34;5048275;28;19964;-68
2023/06/28 06:43:30;;;;;;;;;;;;;;;-144.99;89.72;52211.66;5049003;28;19946;-66
2023/06/28 06:45:57;;;;;;;;;;;;;;;-144.99;90.01;52227.97;5047345;28;19936;-69
2023/06/28 06:48:24;;;;;;;;;;;;;;;-144.99;89.77;52203.50;5055684;28;19988;-67
2023/06/28 06:50:52;;;;;;;;;;;;;;;-144.99;89.83;52227.97;5056080;28;20642;-67
2023/06/28 06:53:19;;;;;;;;;;;;;;;-144.99;89.77;52191.28;5058251;28;19932;-67
2023/06/28 06:55:46;;;;;;;;;;;;;;;-144.99;88.52;52183.13;5051795;28;19973;-68
2023/06/28 06:58:12;;;;;;;;;;;;;;;-144.99;88.00;52172.94;5050070;28;20371;-68
2023/06/28 07:00:39;;;;;;;;;;;;;;;-144.99;86.62;52164.78;5053429;28;19965;-68
2023/06/28 07:03:05;;;;;;;;;;;;;;;-144.99;86.29;52187.19;5052920;28;19937;-68
2023/06/28 07:05:32;;;;;;;;;;;;;;;-144.99;84.91;52154.59;5051659;28;19946;-68
2023/06/28 07:08:00;;;;;;;;;;;;;;;-144.99;84.21;52187.19;5056056;28;19949;-67
2023/06/28 07:10:27;;;;;;;;;;;;;;;-144.99;83.96;52189.25;5051019;28;19962;-68
2023/06/28 07:12:53;;;;;;;;;;;;;;;-144.99;84.21;52174.97;5055978;28;19968;-68
2023/06/28 07:15:20;;;;;;;;;;;;;;;-144.99;84.48;52189.25;5056223;28;19929;-67
2023/06/28 07:17:46;;;;;;;;;;;;;;;-144.99;83.89;52191.28;5052594;28;19947;-68
2023/06/28 07:20:13;;;;;;;;;;;;;;;-144.99;83.06;52199.44;5054752;28;19924;-69
2023/06/28 07:22:40;;;;;;;;;;;;;;;-144.99;82.37;52183.13;5053463;28;20327;-69
2023/06/28 07:25:08;;;;;;;;;;;;;;;-144.99;82.55;52130.13;5054121;28;19959;-68
2023/06/28 07:27:35;;;;;;;;;;;;;;;-144.99;81.93;52195.34;5053808;28;19939;-68
2023/06/28 07:30:03;;;;;;;;;;;;;;;-144.99;81.87;52179.06;5055798;28;20700;-67
2023/06/28 07:32:30;;;;;;;;;;;;;;;-144.99;82.41;52166.81;5057511;28;19966;-69
2023/06/28 07:34:57;;;;;;;;;;;;;;;-144.99;82.48;52183.13;5051438;28;20893;-67
2023/06/28 07:37:23;;;;;;;;;;;;;;;-144.99;82.41;52158.66;5055446;28;20021;-69
2023/06/28 07:39:50;;;;;;;;;;;;;;;-144.99;81.14;52156.63;5051300;28;19966;-66
2023/06/28 07:42:18;;;;;;;;;;;;;;;-144.99;80.52;52134.22;5056035;28;19924;-67
2023/06/28 07:44:45;;;;;;;;;;;;;;;-144.99;78.95;52121.97;5058791;28;19945;-68
2023/06/28 07:47:12;;;;;;;;;;;;;;;-144.99;78.69;52134.22;5055161;28;19953;-67
2023/06/28 07:49:39;;;;;;;;;;;;;;;-144.99;78.57;52146.44;5056178;28;20005;-68
2023/06/28 07:52:06;;;;;;;;;;;;;;;-144.99;80.31;52179.06;5054441;28;19991;-67
2023/06/28 07:54:33;;;;;;;;;;;;;;;-144.99;80.63;52134.22;5055572;28;19979;-67
2023/06/28 07:57:00;;;;;;;;;;;;;;;-144.99;81.16;52152.56;5049028;28;20356;-67
2023/06/28 07:59:28;;;;;;;;;;;;;;;-144.99;81.00;52168.84;5050092;28;19939;-68
2023/06/28 08:01:55;;;;;;;;;;;;;;;-144.99;79.97;52174.97;5050792;28;19971;-67
2023/06/28 08:04:22;;;;;;;;;;;;;;;-144.99;79.17;52140.31;5055656;28;19939;-68
2023/06/28 08:06:49;;;;;;;;;;;;;;;-144.99;78.73;52126.06;5055093;28;19925;-67
2023/06/28 08:09:15;;;;;;;;;;;;;;;-144.99;77.46;52117.91;5051100;28;19939;-67
2023/06/28 08:11:42;;;;;;;;;;;;;;;-144.99;76.79;52146.44;5049619;28;19947;-68
2023/06/28 08:14:08;;;;;;;;;;;;;;;-144.99;76.14;52150.53;5056604;28;19959;-68
2023/06/28 08:16:36;;;;;;;;;;;;;;;-144.99;75.01;52093.44;5050884;28;19946;-67
2023/06/28 08:19:03;;;;;;;;;;;;;;;-144.99;74.03;52117.91;5051915;28;20374;-67
2023/06/28 08:21:30;;;;;;;;;;;;;;;-144.99;73.86;52109.75;5054047;28;19933;-67
2023/06/28 08:23:56;;;;;;;;;;;;;;;-144.99;73.55;52121.97;5049361;28;20416;-66
2023/06/28 08:26:23;;;;;;;;;;;;;;;-144.99;73.93;52146.44;5057459;28;19961;-67
2023/06/28 08:28:49;;;;;;;;;;;;;;;-144.99;74.76;52177.00;5056474;28;20401;-67
2023/06/28 08:31:16;;;;;;;;;;;;;;;-144.99;75.37;52142.38;5056010;28;19953;-67
2023/06/28 08:33:44;;;;;;;;;;;;;;;-144.99;74.94;52109.75;5054634;28;19948;-67
2023/06/28 08:36:11;;;;;;;;;;;;;;;-144.99;74.77;52174.97;5047784;28;19949;-67
2023/06/28 08:38:37;;;;;;;;;;;;;;;-144.99;73.54;52170.91;5052353;28;19951;-67
2023/06/28 08:41:04;;;;;;;;;;;;;;;-144.99;73.38;52117.91;5052382;28;20265;-68
2023/06/28 08:43:31;;;;;;;;;;;;;;;-144.99;73.20;52117.91;5052584;28;19974;-67
2023/06/28 08:45:58;;;;;;;;;;;;;;;-144.99;72.65;52126.06;5052422;28;20357;-67
2023/06/28 08:48:24;;;;;;;;;;;;;;;-144.99;71.90;52126.06;5059401;28;19950;-68
2023/06/28 08:50:52;;;;;;;;;;;;;;;-144.99;73.67;52191.28;5053489;28;20255;-68
2023/06/28 08:53:21;;;;;;;;;;;;;;;-144.99;73.88;52134.22;5048581;28;20484;-68
2023/06/28 08:55:48;;;;;;;;;;;;;;;-144.99;74.05;52150.53;5051347;28;19985;-67
2023/06/28 08:58:16;;;;;;;;;;;;;;;-144.99;73.43;52126.06;5058167;28;20393;-68
2023/06/28 09:00:44;;;;;;;;;;;;;;;-144.99;73.24;52121.97;5065118;28;19971;-70
2023/06/28 09:03:11;;;;;;;;;;;;;;;-144.99;72.57;52117.91;5054895;28;19935;-67
2023/06/28 09:05:38;;;;;;;;;;;;;;;-144.99;73.43;52130.13;5054328;28;20320;-68
2023/06/28 09:08:07;;;;;;;;;;;;;;;-144.99;74.22;52115.88;5061550;28;20312;-68
2023/06/28 09:10:34;;;;;;;;;;;;;;;-144.99;73.84;52101.59;5054002;28;19955;-68
2023/06/28 09:13:01;;;;;;;;;;;;;;;-144.99;73.13;52105.69;5049930;28;20179;-68
2023/06/28 09:15:29;;;;;;;;;;;;;;;-144.99;73.00;52130.13;5049216;28;19941;-68
2023/06/28 09:17:55;;;;;;;;;;;;;;;-144.99;72.58;52081.22;5057037;28;19940;-67
2023/06/28 09:20:22;;;;;;;;;;;;;;;-144.99;72.37;52093.44;5061599;28;19951;-68
2023/06/28 09:22:56;;;;;;;;;;;;;;;-144.99;72.19;52115.88;5049405;28;19963;-69
2023/06/28 09:25:24;;;;;;;;;;;;;;;-144.99;71.97;52093.44;5052701;28;20409;-68
2023/06/28 09:27:51;;;;;;;;;;;;;;;-144.99;70.86;52069.00;5062567;28;19946;-68
2023/06/28 09:30:18;;;;;;;;;;;;;;;-144.99;70.53;52069.00;5054777;28;20387;-70
2023/06/28 09:32:50;;;;;;;;;;;;;;;-144.99;69.61;52085.31;5057824;28;20548;-68
2023/06/28 09:35:16;;;;;;;;;;;;;;;-144.99;69.43;52103.66;5050602;28;20293;-67
2023/06/28 09:37:44;;;;;;;;;;;;;;;-144.99;69.78;52126.06;5049480;28;20051;-68
2023/06/28 09:40:15;;;;;;;;;;;;;;;-144.99;70.05;52095.50;5058710;28;19950;-68
2023/06/28 09:42:47;;;;;;;;;;;;;;;-144.99;69.59;52142.38;5053784;28;20016;-67
2023/06/28 09:45:24;;;;;;;;;;;;;;;-144.99;70.41;52146.44;5059394;28;19941;-67
2023/06/28 09:47:54;;;;;;;;;;;;;;;-144.99;70.65;52134.22;5049563;28;19964;-68
2023/06/28 09:50:21;;;;;;;;;;;;;;;-144.99;70.46;52138.28;5057030;28;20317;-68
2023/06/28 09:52:48;;;;;;;;;;;;;;;-144.99;70.28;52085.31;5052568;28;19941;-67
2023/06/28 09:55:15;;;;;;;;;;;;;;;-144.99;68.45;52064.91;5049737;28;19941;-67
2023/06/28 09:57:43;;;;;;;;;;;;;;;-144.99;68.02;52081.22;5050089;28;19940;-67
2023/06/28 10:00:13;;;;;;;;;;;;;;;-144.99;67.46;52069.00;5050942;28;19953;-68
2023/06/28 10:02:40;;;;;;;;;;;;;;;-144.99;66.89;52069.00;5049013;28;19932;-67
2023/06/28 10:05:07;;;;;;;;;;;;;;;-144.99;65.84;52109.75;5055599;28;19935;-67
2023/06/28 10:07:34;;;;;;;;;;;;;;;-144.99;65.22;52087.34;5052392;28;19947;-68
2023/06/28 10:10:01;;;;;;;;;;;;;;;-144.99;65.74;52089.38;5047319;28;19973;-68
2023/06/28 10:12:29;;;;;;;;;;;;;;;-144.99;65.79;52056.78;5050728;28;19928;-67
2023/06/28 10:14:59;;;;;;;;;;;;;;;-144.99;64.82;52048.63;5053520;28;19965;-68
2023/06/28 10:17:31;;;;;;;;;;;;;;;-144.99;64.44;52048.63;5050012;28;19951;-68
2023/06/28 10:19:57;;;;;;;;;;;;;;;-144.99;64.00;52056.78;5051496;28;19935;-68
2023/06/28 10:22:24;;;;;;;;;;;;;;;-144.99;63.67;52052.69;5048258;28;19944;-68
2023/06/28 10:24:52;;;;;;;;;;;;;;;-144.99;64.64;52111.78;5052041;28;19998;-68
2023/06/28 10:27:19;;;;;;;;;;;;;;;-144.99;65.44;52073.06;5059302;28;20455;-68
2023/06/28 10:29:47;;;;;;;;;;;;;;;-144.99;65.39;52069.00;5049010;28;20333;-69
2023/06/28 10:32:14;;;;;;;;;;;;;;;-144.99;65.18;52073.06;5045443;28;20022;-69
2023/06/28 10:34:42;;;;;;;;;;;;;;;-144.99;64.80;52028.22;5052376;28;19954;-67
2023/06/28 10:37:09;;;;;;;;;;;;;;;-144.99;64.12;52105.69;5049418;28;19941;-69
2023/06/28 10:39:36;;;;;;;;;;;;;;;-144.99;63.27;52028.22;5049025;28;20290;-68
2023/06/28 10:42:03;;;;;;;;;;;;;;;-144.99;62.74;52064.91;5045802;28;20027;-68
2023/06/28 10:44:29;;;;;;;;;;;;;;;-144.99;63.35;52103.66;5049739;28;19955;-68
2023/06/28 10:47:09;;;;;;;;;;;;;;;-144.99;63.24;52097.53;5051840;28;19965;-68
2023/06/28 10:49:36;;;;;;;;;;;;;;;-144.99;63.11;52048.63;5057606;28;19962;-69
2023/06/28 10:52:04;;;;;;;;;;;;;;;-144.99;62.18;52024.16;5055958;28;19937;-69
2023/06/28 10:54:31;;;;;;;;;;;;;;;-144.99;61.90;52028.22;5046481;28;19959;-69
2023/06/28 10:57:08;;;;;;;;;;;;;;;-144.99;61.70;52020.09;5045331;28;19941;-69
2023/06/28 10:59:36;;;;;;;;;;;;;;;-144.99;61.22;52038.44;5049226;28;19959;-69
2023/06/28 11:02:03;;;;;;;;;;;;;;;-144.99;60.64;51995.63;5054434;28;20396;-69
2023/06/28 11:04:29;;;;;;;;;;;;;;;-144.99;61.61;52052.69;5052422;28;19979;-69
2023/06/28 11:07:16;;;;;;;;;;;;;;;-144.99;61.90;52020.09;5057055;28;19945;-68
2023/06/28 11:09:58;;;;;;;;;;;;;;;-144.99;62.21;52005.81;5049359;28;19929;-70
2023/06/28 11:12:24;;;;;;;;;;;;;;;-144.99;61.51;51983.41;5056706;28;19939;-69
2023/06/28 11:15:06;;;;;;;;;;;;;;;-144.99;61.11;52009.91;5047765;28;19967;-69
2023/06/28 11:17:33;;;;;;;;;;;;;;;-144.99;61.40;52003.78;5049165;28;19964;-71
2023/06/28 11:20:05;;;;;;;;;;;;;;;-144.99;60.82;51985.44;5045033;28;19955;-70
2023/06/28 11:22:48;;;;;;;;;;;;;;;-144.99;61.08;52007.84;5054432;28;19947;-69
2023/06/28 11:25:14;;;;;;;;;;;;;;;-144.99;60.14;51967.09;5052272;28;19950;-69
2023/06/28 11:27:41;;;;;;;;;;;;;;;-144.99;61.10;51995.63;5047954;28;19945;-69
2023/06/28 11:30:09;;;;;;;;;;;;;;;-144.99;60.62;51983.41;5053478;28;19955;-69
2023/06/28 11:32:37;;;;;;;;;;;;;;;-144.99;60.53;51979.31;5057235;28;19968;-69
2023/06/28 11:35:05;;;;;;;;;;;;;;;-144.99;59.92;51958.94;5053697;28;19955;-69
2023/06/28 11:37:32;;;;;;;;;;;;;;;-144.99;58.44;51958.94;5048467;28;20388;-70
2023/06/28 11:40:00;;;;;;;;;;;;;;;-144.99;58.69;51979.31;5045207;28;19979;-70
2023/06/28 11:42:27;;;;;;;;;;;;;;;-144.99;59.21;51971.16;5051937;28;19939;-70
2023/06/28 11:44:54;;;;;;;;;;;;;;;-144.99;58.92;51956.91;5050631;28;19935;-69
2023/06/28 11:47:21;;;;;;;;;;;;;;;-144.99;59.30;51983.41;5051496;28;19941;-71
2023/06/28 11:49:47;;;;;;;;;;;;;;;-144.99;58.70;51977.28;5050696;28;20001;-70
2023/06/28 11:52:16;;;;;;;;;;;;;;;-144.99;59.25;52028.22;5057229;28;19933;-68
2023/06/28 11:54:43;;;;;;;;;;;;;;;-144.99;60.05;52069.00;5049324;28;19955;-70
2023/06/28 11:57:11;;;;;;;;;;;;;;;-144.99;60.87;52105.69;5047543;28;20024;-69
2023/06/28 11:59:44;;;;;;;;;;;;;;;-144.99;61.73;52105.69;5045226;28;19964;-69
2023/06/28 12:02:11;;;;;;;;;;;;;;;-144.99;61.54;52146.44;5060979;28;19985;-70
2023/06/28 12:04:38;;;;;;;;;;;;;;;-144.99;61.93;52085.31;5054897;28;19951;-69
2023/06/28 12:07:05;;;;;;;;;;;;;;;-144.99;62.49;52058.81;5050351;28;20377;-68
2023/06/28 12:09:33;;;;;;;;;;;;;;;-144.99;61.74;52036.38;5052646;28;20448;-67
2023/06/28 12:12:01;;;;;;;;;;;;;;;-144.99;61.35;52024.16;5059048;28;19936;-68
2023/06/28 12:14:30;;;;;;;;;;;;;;;-144.99;61.54;52007.84;5062105;28;19956;-68
2023/06/28 12:16:58;;;;;;;;;;;;;;;-144.99;60.73;52040.47;5061661;28;20169;-69
2023/06/28 12:19:29;;;;;;;;;;;;;;;-144.99;60.68;52024.16;5062773;28;20346;-69
2023/06/28 12:21:56;;;;;;;;;;;;;;;-144.99;60.80;51997.66;5060445;28;20396;-69
2023/06/28 12:24:25;;;;;;;;;;;;;;;-144.99;60.84;51956.91;5059013;28;20957;-68